KMMV

Mc Minnville Municipal Airport

Mc Minnville, Oregon, USA
METAR KMMV 140353Z AUTO 00000KT 7SM CLR 00/M01 A3037 RMK AO2 SLP285 T00001006
Observed Flight Rules
Nov-14 @ 03:53 UTC (57 minutes ago) Visual Flight Rules
Visibility Clouds
7 miles
  • Clear skies
Temperatures Readings
Current 0°C / 32°F
Dewpoint -1°C / 30°F
Humidity 93%
Altimeter 30.37" Hg
Pressure 1028.5 hPa
Elevation 48
METAR KMMV 140353Z AUTO 00000KT 7SM CLR 00/M01 A3037 RMK AO2 SLP285 T00001006
Observed Flight Rules
Nov-14 @ 03:53 UTC
(57 minutes ago)
VFR
Clouds
  • Clear skies
Temperature Dewpoint
0°C / 32°F -1°C / 30°F
Humidity Altimeter Pressure
93% 30.37" Hg 1028.5 hPa